Time,TemperatureF,DewpointF,PressureIn,WindDirection,WindDirectionDegrees,WindSpeedMPH,WindSpeedGustMPH,Humidity,HourlyPrecipIn,Conditions,Clouds,dailyrainin,SoftwareType,DateUTC
2013-04-26 00:02:00,66.0,14.0,29.83,NNW,328,0.0,1.0,13,0.00,,,0.00,,2013-04-26 06:02:00,
2013-04-26 00:11:00,66.0,14.0,29.83,NNW,328,0.0,1.0,13,0.00,,,0.00,,2013-04-26 06:11:00,
2013-04-26 00:21:00,65.0,15.0,29.83,South,179,0.0,1.0,14,0.00,,,0.00,,2013-04-26 06:21:00,
2013-04-26 00:32:00,63.0,16.0,29.84,West,270,0.0,0.0,16,0.00,,,0.00,,2013-04-26 06:32:00,
2013-04-26 00:42:00,63.0,16.0,29.84,West,270,0.0,0.0,16,0.00,,,0.00,,2013-04-26 06:42:00,
2013-04-26 00:52:00,62.0,15.0,29.84,West,264,0.0,1.0,16,0.00,,,0.00,,2013-04-26 06:52:00,
2013-04-26 01:01:00,60.0,16.0,29.85,SSE,156,0.0,1.0,18,0.00,,,0.00,,2013-04-26 07:01:00,
2013-04-26 01:11:00,60.0,16.0,29.85,SSE,156,0.0,1.0,18,0.00,,,0.00,,2013-04-26 07:11:00,
2013-04-26 01:22:00,58.0,17.0,29.85,SSE,156,0.0,1.0,20,0.00,,,0.00,,2013-04-26 07:22:00,
2013-04-26 01:31:00,56.0,19.0,29.85,SSE,156,0.0,1.0,23,0.00,,,0.00,,2013-04-26 07:31:00,
2013-04-26 01:42:00,56.0,19.0,29.85,SSE,156,0.0,1.0,23,0.00,,,0.00,,2013-04-26 07:42:00,
2013-04-26 01:52:00,55.0,20.0,29.86,SE,144,0.0,0.0,25,0.00,,,0.00,,2013-04-26 07:52:00,
2013-04-26 02:02:00,55.0,20.0,29.87,SE,131,0.0,0.0,25,0.00,,,0.00,,2013-04-26 08:02:00,
2013-04-26 02:11:00,55.0,20.0,29.87,SE,131,0.0,0.0,25,0.00,,,0.00,,2013-04-26 08:11:00,
2013-04-26 02:21:00,55.0,19.0,29.87,SE,131,0.0,0.0,24,0.00,,,0.00,,2013-04-26 08:21:00,
2013-04-26 02:32:00,54.0,19.0,29.87,SSW,194,0.0,0.0,25,0.00,,,0.00,,2013-04-26 08:32:00,
2013-04-26 02:42:00,54.0,19.0,29.87,SSW,194,0.0,0.0,25,0.00,,,0.00,,2013-04-26 08:42:00,
2013-04-26 02:51:00,53.0,18.0,29.88,WSW,246,0.0,1.0,25,0.00,,,0.00,,2013-04-26 08:51:00,
2013-04-26 03:01:00,53.0,21.0,29.88,SW,231,0.0,0.0,28,0.00,,,0.00,,2013-04-26 09:01:00,
2013-04-26 03:11:00,53.0,21.0,29.88,SW,231,0.0,0.0,28,0.00,,,0.00,,2013-04-26 09:11:00,
2013-04-26 03:21:00,52.0,21.0,29.88,SW,231,0.0,0.0,29,0.00,,,0.00,,2013-04-26 09:21:00,
2013-04-26 03:33:00,51.0,21.0,29.89,SW,231,0.0,0.0,31,0.00,,,0.00,,2013-04-26 09:33:00,
2013-04-26 03:42:00,51.0,21.0,29.89,SW,231,0.0,0.0,31,0.00,,,0.00,,2013-04-26 09:42:00,
2013-04-26 03:53:00,50.0,22.0,29.89,SW,231,0.0,0.0,33,0.00,,,0.00,,2013-04-26 09:53:00,
2013-04-26 04:03:00,49.0,23.0,29.90,SW,222,0.0,2.0,36,0.00,,,0.00,,2013-04-26 10:03:00,
2013-04-26 04:12:00,49.0,23.0,29.90,SW,222,0.0,2.0,36,0.00,,,0.00,,2013-04-26 10:12:00,
2013-04-26 04:23:00,49.0,23.0,29.91,East,85,0.0,1.0,35,0.00,,,0.00,,2013-04-26 10:23:00,
2013-04-26 04:33:00,48.0,24.0,29.91,NW,314,0.0,0.0,39,0.00,,,0.00,,2013-04-26 10:33:00,
2013-04-26 04:42:00,48.0,24.0,29.91,NW,314,0.0,0.0,39,0.00,,,0.00,,2013-04-26 10:42:00,
2013-04-26 04:52:00,48.0,24.0,29.91,NW,313,0.0,1.0,39,0.00,,,0.00,,2013-04-26 10:52:00,
2013-04-26 05:02:00,48.0,26.0,29.92,NNE,16,0.0,1.0,42,0.00,,,0.00,,2013-04-26 11:02:00,
2013-04-26 05:11:00,48.0,26.0,29.92,NNE,16,0.0,1.0,42,0.00,,,0.00,,2013-04-26 11:11:00,
2013-04-26 05:22:00,47.0,25.0,29.92,WNW,297,0.0,1.0,41,0.00,,,0.00,,2013-04-26 11:22:00,
2013-04-26 05:32:00,47.0,23.0,29.92,WSW,249,0.0,1.0,39,0.00,,,0.00,,2013-04-26 11:32:00,
2013-04-26 05:42:00,47.0,23.0,29.92,WSW,249,0.0,1.0,39,0.00,,,0.00,,2013-04-26 11:42:00,
2013-04-26 05:52:00,47.0,25.0,29.92,SE,142,0.0,1.0,41,0.00,,,0.00,,2013-04-26 11:52:00,
2013-04-26 06:01:00,46.0,24.0,29.92,SE,132,0.0,0.0,42,0.00,,,0.00,,2013-04-26 12:01:00,
2013-04-26 06:11:00,46.0,24.0,29.92,SE,132,0.0,0.0,42,0.00,,,0.00,,2013-04-26 12:11:00,
2013-04-26 06:21:00,45.0,25.0,29.93,North,359,2.0,4.0,45,0.00,,,0.00,,2013-04-26 12:21:00,
2013-04-26 06:32:00,45.0,25.0,29.93,North,5,0.0,2.0,45,0.00,,,0.00,,2013-04-26 12:32:00,
2013-04-26 06:42:00,45.0,25.0,29.93,North,5,0.0,2.0,45,0.00,,,0.00,,2013-04-26 12:42:00,
2013-04-26 06:52:00,43.0,24.0,29.94,SW,228,0.0,1.0,46,0.00,,,0.00,,2013-04-26 12:52:00,
2013-04-26 07:01:00,43.0,24.0,29.95,NE,47,0.0,1.0,46,0.00,,,0.00,,2013-04-26 13:01:00,
2013-04-26 07:11:00,43.0,24.0,29.95,NE,47,0.0,1.0,46,0.00,,,0.00,,2013-04-26 13:11:00,
2013-04-26 07:21:00,44.0,26.0,29.96,NE,47,0.0,1.0,48,0.00,,,0.00,,2013-04-26 13:21:00,
2013-04-26 07:32:00,45.0,24.0,29.97,NE,47,0.0,0.0,43,0.00,,,0.00,,2013-04-26 13:32:00,
2013-04-26 07:42:00,45.0,24.0,29.97,NE,47,0.0,0.0,43,0.00,,,0.00,,2013-04-26 13:42:00,
2013-04-26 07:52:00,46.0,25.0,29.97,NE,47,0.0,0.0,44,0.00,,,0.00,,2013-04-26 13:52:00,
2013-04-26 08:01:00,48.0,28.0,29.98,NE,46,0.0,0.0,45,0.00,,,0.00,,2013-04-26 14:01:00,
2013-04-26 08:11:00,48.0,28.0,29.98,NE,46,0.0,0.0,45,0.00,,,0.00,,2013-04-26 14:11:00,
2013-04-26 08:21:00,50.0,25.0,29.99,NE,46,0.0,1.0,37,0.00,,,0.00,,2013-04-26 14:21:00,
2013-04-26 08:32:00,52.0,24.0,29.99,NE,47,0.0,0.0,33,0.00,,,0.00,,2013-04-26 14:32:00,
2013-04-26 08:42:00,52.0,24.0,29.99,NE,47,0.0,0.0,33,0.00,,,0.00,,2013-04-26 14:42:00,
2013-04-26 08:52:00,56.0,26.0,29.99,NE,46,0.0,0.0,31,0.00,,,0.00,,2013-04-26 14:52:00,
2013-04-26 09:01:00,61.0,29.0,29.99,NE,46,0.0,0.0,29,0.00,,,0.00,,2013-04-26 15:01:00,
2013-04-26 09:12:00,61.0,29.0,29.99,NE,46,0.0,0.0,29,0.00,,,0.00,,2013-04-26 15:12:00,
2013-04-26 09:21:00,63.0,25.0,29.99,SE,144,0.0,1.0,23,0.00,,,0.00,,2013-04-26 15:21:00,
2013-04-26 09:33:00,66.0,23.0,29.99,SSW,208,0.0,1.0,19,0.00,,,0.00,,2013-04-26 15:33:00,
2013-04-26 09:43:00,66.0,23.0,29.99,SSW,208,0.0,1.0,19,0.00,,,0.00,,2013-04-26 15:43:00,
2013-04-26 09:53:00,68.0,22.0,30.00,NNE,19,0.0,1.0,17,0.00,,,0.00,,2013-04-26 15:53:00,
2013-04-26 10:03:00,70.0,22.0,30.00,ESE,103,0.0,1.0,16,0.00,,,0.00,,2013-04-26 16:03:00,
2013-04-26 10:12:00,70.0,22.0,30.00,ESE,103,0.0,1.0,16,0.00,,,0.00,,2013-04-26 16:12:00,
2013-04-26 10:23:00,70.0,17.0,30.00,NNE,22,0.0,2.0,13,0.00,,,0.00,,2013-04-26 16:23:00,
2013-04-26 10:33:00,71.0,18.0,30.00,NNE,15,1.0,3.0,13,0.00,,,0.00,,2013-04-26 16:33:00,
2013-04-26 10:42:00,71.0,18.0,30.00,NNE,15,1.0,3.0,13,0.00,,,0.00,,2013-04-26 16:42:00,
2013-04-26 10:52:00,72.0,18.0,30.00,SE,143,0.0,3.0,13,0.00,,,0.00,,2013-04-26 16:52:00,
2013-04-26 11:02:00,73.0,19.0,30.00,WNW,295,0.0,2.0,13,0.00,,,0.00,,2013-04-26 17:02:00,
2013-04-26 11:12:00,73.0,19.0,30.00,WNW,295,0.0,2.0,13,0.00,,,0.00,,2013-04-26 17:12:00,
2013-04-26 11:22:00,73.0,19.0,30.00,NE,54,0.0,5.0,13,0.00,,,0.00,,2013-04-26 17:22:00,
2013-04-26 11:31:00,74.0,22.0,29.99,SSE,158,1.0,3.0,14,0.00,,,0.00,,2013-04-26 17:31:00,
2013-04-26 11:42:00,74.0,22.0,29.99,SSE,158,1.0,3.0,14,0.00,,,0.00,,2013-04-26 17:42:00,
2013-04-26 11:52:00,76.0,20.0,29.98,ENE,77,1.0,3.0,12,0.00,,,0.00,,2013-04-26 17:52:00,
2013-04-26 12:02:00,75.0,19.0,29.98,NE,39,0.0,8.0,12,0.00,,,0.00,,2013-04-26 18:02:00,
2013-04-26 12:12:00,75.0,19.0,29.98,NE,39,0.0,8.0,12,0.00,,,0.00,,2013-04-26 18:12:00,
2013-04-26 12:22:00,76.0,27.0,29.97,NE,53,2.0,7.0,16,0.00,,,0.00,,2013-04-26 18:22:00,
2013-04-26 12:33:00,77.0,20.0,29.97,ENE,58,2.0,5.0,12,0.00,,,0.00,,2013-04-26 18:33:00,
2013-04-26 12:42:00,77.0,20.0,29.97,ENE,58,2.0,5.0,12,0.00,,,0.00,,2013-04-26 18:42:00,
2013-04-26 12:52:00,77.0,16.0,29.96,ENE,57,3.0,10.0,10,0.00,,,0.00,,2013-04-26 18:52:00,
2013-04-26 13:01:00,78.0,15.0,29.96,NW,316,0.0,6.0,9,0.00,,,0.00,,2013-04-26 19:01:00,
2013-04-26 13:12:00,78.0,15.0,29.96,NW,316,0.0,6.0,9,0.00,,,0.00,,2013-04-26 19:12:00,
2013-04-26 13:22:00,80.0,21.0,29.95,North,1,1.0,5.0,11,0.00,,,0.00,,2013-04-26 19:22:00,
2013-04-26 13:32:00,79.0,18.0,29.95,WNW,300,3.0,9.0,10,0.00,,,0.00,,2013-04-26 19:32:00,
2013-04-26 13:41:00,79.0,18.0,29.95,WNW,300,3.0,9.0,10,0.00,,,0.00,,2013-04-26 19:41:00,
2013-04-26 13:52:00,80.0,19.0,29.94,South,169,0.0,5.0,10,0.00,,,0.00,,2013-04-26 19:52:00,
2013-04-26 14:02:00,81.0,17.0,29.93,NE,36,2.0,6.0,9,0.00,,,0.00,,2013-04-26 20:02:00,
2013-04-26 14:11:00,81.0,17.0,29.93,NE,36,2.0,6.0,9,0.00,,,0.00,,2013-04-26 20:11:00,
2013-04-26 14:21:00,81.0,14.0,29.93,SW,218,2.0,5.0,8,0.00,,,0.00,,2013-04-26 20:21:00,
2013-04-26 14:32:00,82.0,15.0,29.92,SSW,200,1.0,5.0,8,0.00,,,0.00,,2013-04-26 20:32:00,
2013-04-26 14:42:00,82.0,15.0,29.92,SSW,200,1.0,5.0,8,0.00,,,0.00,,2013-04-26 20:42:00,
2013-04-26 14:52:00,83.0,18.0,29.92,South,188,2.0,9.0,9,0.00,,,0.00,,2013-04-26 20:52:00,
2013-04-26 15:01:00,83.0,16.0,29.91,SE,138,2.0,7.0,8,0.00,,,0.00,,2013-04-26 21:01:00,
2013-04-26 15:11:00,83.0,16.0,29.91,SE,138,2.0,7.0,8,0.00,,,0.00,,2013-04-26 21:11:00,
2013-04-26 15:22:00,83.0,16.0,29.91,East,86,0.0,4.0,8,0.00,,,0.00,,2013-04-26 21:22:00,
2013-04-26 15:33:00,84.0,13.0,29.90,East,82,0.0,5.0,7,0.00,,,0.00,,2013-04-26 21:33:00,
2013-04-26 15:42:00,84.0,13.0,29.90,East,82,0.0,5.0,7,0.00,,,0.00,,2013-04-26 21:42:00,
2013-04-26 15:53:00,84.0,13.0,29.90,East,82,0.0,5.0,7,0.00,,,0.00,,2013-04-26 21:53:00,
2013-04-26 16:02:00,84.0,6.0,29.89,SSE,156,1.0,5.0,5,0.00,,,0.00,,2013-04-26 22:02:00,
2013-04-26 16:12:00,84.0,6.0,29.89,SSE,156,1.0,5.0,5,0.00,,,0.00,,2013-04-26 22:12:00,
2013-04-26 16:23:00,85.0,20.0,29.88,NW,316,2.0,7.0,9,0.00,,,0.00,,2013-04-26 22:23:00,
2013-04-26 16:33:00,84.0,6.0,29.88,SSE,156,1.0,8.0,5,0.00,,,0.00,,2013-04-26 22:33:00,
2013-04-26 16:42:00,84.0,6.0,29.88,SSE,156,1.0,8.0,5,0.00,,,0.00,,2013-04-26 22:42:00,
2013-04-26 16:52:00,84.0,1.0,29.88,SW,225,0.0,4.0,4,0.00,,,0.00,,2013-04-26 22:52:00,
2013-04-26 17:02:00,84.0,10.0,29.88,SW,226,3.0,6.0,6,0.00,,,0.00,,2013-04-26 23:02:00,
2013-04-26 17:11:00,84.0,10.0,29.88,SW,226,3.0,6.0,6,0.00,,,0.00,,2013-04-26 23:11:00,
2013-04-26 17:21:00,84.0,16.0,29.87,SW,217,3.0,9.0,8,0.00,,,0.00,,2013-04-26 23:21:00,
2013-04-26 17:32:00,83.0,5.0,29.87,SW,236,2.0,6.0,5,0.00,,,0.00,,2013-04-26 23:32:00,
2013-04-26 17:42:00,83.0,5.0,29.87,SW,236,2.0,6.0,5,0.00,,,0.00,,2013-04-26 23:42:00,
2013-04-26 17:52:00,82.0,12.0,29.87,WSW,245,3.0,9.0,7,0.00,,,0.00,,2013-04-26 23:52:00,
2013-04-26 18:01:00,81.0,14.0,29.88,SW,224,3.0,7.0,8,0.00,,,0.00,,2013-04-27 00:01:00,
2013-04-26 18:11:00,81.0,14.0,29.88,SW,224,3.0,7.0,8,0.00,,,0.00,,2013-04-27 00:11:00,
2013-04-26 18:21:00,80.0,7.0,29.88,WSW,252,0.0,4.0,6,0.00,,,0.00,,2013-04-27 00:21:00,
2013-04-26 18:32:00,80.0,3.0,29.88,West,266,0.0,2.0,5,0.00,,,0.00,,2013-04-27 00:32:00,
2013-04-26 18:42:00,80.0,3.0,29.88,West,266,0.0,2.0,5,0.00,,,0.00,,2013-04-27 00:42:00,
2013-04-26 18:52:00,79.0,6.0,29.88,SW,232,0.0,3.0,6,0.00,,,0.00,,2013-04-27 00:52:00,
2013-04-26 19:01:00,79.0,6.0,29.88,South,169,0.0,2.0,6,0.00,,,0.00,,2013-04-27 01:01:00,
2013-04-26 19:12:00,79.0,6.0,29.88,South,169,0.0,2.0,6,0.00,,,0.00,,2013-04-27 01:12:00,
2013-04-26 19:21:00,77.0,8.0,29.88,WSW,252,0.0,3.0,7,0.00,,,0.00,,2013-04-27 01:21:00,
2013-04-26 19:32:00,75.0,17.0,29.88,NW,307,0.0,1.0,11,0.00,,,0.00,,2013-04-27 01:32:00,
2013-04-26 19:42:00,75.0,17.0,29.88,NW,307,0.0,1.0,11,0.00,,,0.00,,2013-04-27 01:42:00,
2013-04-26 19:52:00,73.0,17.0,29.88,NW,309,0.0,0.0,12,0.00,,,0.00,,2013-04-27 01:52:00,
2013-04-26 20:01:00,72.0,17.0,29.89,WSW,246,0.0,2.0,12,0.00,,,0.00,,2013-04-27 02:01:00,
2013-04-26 20:11:00,72.0,17.0,29.89,WSW,246,0.0,2.0,12,0.00,,,0.00,,2013-04-27 02:11:00,
2013-04-26 20:22:00,70.0,11.0,29.89,SSE,152,0.0,0.0,10,0.00,,,0.00,,2013-04-27 02:22:00,
2013-04-26 20:32:00,71.0,7.0,29.90,West,264,0.0,1.0,8,0.00,,,0.00,,2013-04-27 02:32:00,
2013-04-26 20:42:00,71.0,7.0,29.90,West,264,0.0,1.0,8,0.00,,,0.00,,2013-04-27 02:42:00,
2013-04-26 20:52:00,69.0,10.0,29.91,East,80,0.0,0.0,10,0.00,,,0.00,,2013-04-27 02:52:00,
2013-04-26 21:02:00,67.0,15.0,29.92,East,81,0.0,0.0,13,0.00,,,0.00,,2013-04-27 03:02:00,
2013-04-26 21:11:00,67.0,15.0,29.92,East,81,0.0,0.0,13,0.00,,,0.00,,2013-04-27 03:11:00,
2013-04-26 21:22:00,64.0,14.0,29.93,East,81,0.0,0.0,14,0.00,,,0.00,,2013-04-27 03:22:00,
2013-04-26 21:33:00,63.0,15.0,29.93,East,80,0.0,0.0,15,0.00,,,0.00,,2013-04-27 03:33:00,
2013-04-26 21:43:00,63.0,15.0,29.93,East,80,0.0,0.0,15,0.00,,,0.00,,2013-04-27 03:43:00,
2013-04-26 21:53:00,62.0,19.0,29.94,East,81,0.0,0.0,19,0.00,,,0.00,,2013-04-27 03:53:00,
2013-04-26 22:02:00,61.0,21.0,29.95,East,82,0.0,0.0,21,0.00,,,0.00,,2013-04-27 04:02:00,
2013-04-26 22:12:00,61.0,21.0,29.95,East,82,0.0,0.0,21,0.00,,,0.00,,2013-04-27 04:12:00,
2013-04-26 22:22:00,60.0,16.0,29.95,NNW,337,0.0,1.0,18,0.00,,,0.00,,2013-04-27 04:22:00,
2013-04-26 22:33:00,59.0,18.0,29.95,NNW,337,0.0,0.0,20,0.00,,,0.00,,2013-04-27 04:33:00,
2013-04-26 22:43:00,59.0,18.0,29.95,NNW,337,0.0,0.0,20,0.00,,,0.00,,2013-04-27 04:43:00,
2013-04-26 22:53:00,58.0,17.0,29.96,NNW,338,0.0,0.0,20,0.00,,,0.00,,2013-04-27 04:53:00,
2013-04-26 23:02:00,57.0,17.0,29.96,West,276,0.0,2.0,21,0.00,,,0.00,,2013-04-27 05:02:00,
2013-04-26 23:12:00,57.0,17.0,29.96,West,276,0.0,2.0,21,0.00,,,0.00,,2013-04-27 05:12:00,
2013-04-26 23:22:00,56.0,21.0,29.96,SW,222,0.0,1.0,25,0.00,,,0.00,,2013-04-27 05:22:00,
2013-04-26 23:32:00,55.0,22.0,29.96,SW,219,0.0,2.0,27,0.00,,,0.00,,2013-04-27 05:32:00,
2013-04-26 23:42:00,55.0,22.0,29.96,SW,219,0.0,2.0,27,0.00,,,0.00,,2013-04-27 05:42:00,
2013-04-26 23:52:00,54.0,22.0,29.96,WSW,254,0.0,1.0,28,0.00,,,0.00,,2013-04-27 05:52:00,